Time;durP1;ratioP1;P1;durP2;ratioP2;P2;SDS_P1;SDS_P2;PMS_P1;PMS_P2;Temp;Humidity;BMP_temperature;BMP_pressure;BME280_temperature;BME280_humidity;BME280_pressure;Samples;Min_cycle;Max_cycle;Signal;HPM_P1;HPM_P2
2022/07/03 00:01:35;;;;;;;6.87;4.57;;;;;;;30.39;43.18;101332.28;143722;570;47011;-78
2022/07/03 00:04:01;;;;;;;9.73;5.60;;;;;;;30.49;42.88;101333.94;143717;574;47002;-77
2022/07/03 00:06:30;;;;;;;9.65;6.18;;;;;;;30.51;42.13;101339.19;143723;609;46926;-77
2022/07/03 00:08:58;;;;;;;8.98;5.00;;;;;;;30.47;41.19;101338.19;143724;574;47005;-76
2022/07/03 00:11:24;;;;;;;6.53;4.80;;;;;;;30.49;41.08;101341.47;143723;576;46893;-77
2022/07/03 00:13:51;;;;;;;6.70;5.30;;;;;;;30.42;40.85;101341.91;143723;634;47002;-77
2022/07/03 00:16:17;;;;;;;15.27;5.03;;;;;;;30.37;40.52;101329.00;143723;582;46006;-76
2022/07/03 00:18:44;;;;;;;7.15;4.62;;;;;;;30.38;40.19;101327.88;143724;572;47002;-77
2022/07/03 00:21:14;;;;;;;4.95;4.55;;;;;;;30.37;40.31;101333.75;143722;621;47010;-78
2022/07/03 00:23:46;;;;;;;5.30;4.28;;;;;;;30.33;40.36;101336.34;143721;585;47004;-77
2022/07/03 00:26:20;;;;;;;7.97;4.65;;;;;;;30.35;40.69;101324.91;143723;572;46006;-78
2022/07/03 00:28:47;;;;;;;7.47;4.20;;;;;;;30.37;40.66;101329.00;143724;630;47004;-76
2022/07/03 00:31:14;;;;;;;7.22;4.72;;;;;;;30.36;41.10;101334.87;143722;573;46011;-78
2022/07/03 00:33:41;;;;;;;5.78;4.43;;;;;;;30.39;41.38;101335.03;143723;584;47004;-77
2022/07/03 00:36:09;;;;;;;12.85;11.43;;;;;;;30.35;41.08;101328.53;143721;653;46006;-77
2022/07/03 00:38:35;;;;;;;4.82;4.30;;;;;;;30.29;40.97;101331.72;143724;579;47004;-76
2022/07/03 00:41:03;;;;;;;7.47;4.90;;;;;;;30.25;41.01;101332.37;143723;605;46010;-77
2022/07/03 00:43:30;;;;;;;5.85;4.62;;;;;;;30.22;41.45;101337.72;143724;585;47004;-77
2022/07/03 00:46:10;;;;;;;8.95;6.28;;;;;;;30.19;40.87;101341.97;143723;573;46926;-78
2022/07/03 00:48:38;;;;;;;8.40;4.85;;;;;;;30.17;41.14;101332.34;143724;589;47002;-76
2022/07/03 00:51:07;;;;;;;7.53;5.05;;;;;;;30.19;41.56;101327.28;143722;568;47008;-76
2022/07/03 00:53:37;;;;;;;6.22;4.50;;;;;;;30.16;41.64;101345.37;143716;660;47004;-79
2022/07/03 00:56:05;;;;;;;6.97;5.05;;;;;;;30.15;41.23;101331.84;143722;608;47006;-77
2022/07/03 00:58:35;;;;;;;5.03;4.53;;;;;;;30.12;40.86;101332.47;143725;588;47004;-76
2022/07/03 01:01:02;;;;;;;6.18;4.62;;;;;;;30.17;40.48;101329.56;143723;600;46011;-77
2022/07/03 01:03:35;;;;;;;5.68;5.18;;;;;;;30.17;41.89;101335.13;143723;603;47004;-77
2022/07/03 01:06:13;;;;;;;6.75;4.93;;;;;;;30.13;41.38;101329.38;143723;591;46017;-78
2022/07/03 01:08:58;;;;;;;8.27;5.62;;;;;;;30.05;41.20;101336.50;143723;625;47002;-78
2022/07/03 01:11:58;;;;;;;11.05;7.95;;;;;;;30.09;40.82;101328.41;143722;593;47010;-78
2022/07/03 01:14:44;;;;;;;9.00;5.32;;;;;;;30.07;41.71;101325.13;143724;584;47002;-78
2022/07/03 01:17:35;;;;;;;8.18;5.47;;;;;;;30.07;41.12;101323.16;143724;577;46006;-78
2022/07/03 01:20:14;;;;;;;7.40;4.95;;;;;;;29.99;41.27;101325.88;143725;573;45008;-72
2022/07/03 01:22:56;;;;;;;18.02;5.80;;;;;;;30.00;41.43;101338.59;143729;628;45930;-73
2022/07/03 01:25:35;;;;;;;9.77;8.77;;;;;;;30.06;41.77;101329.03;143730;576;46004;-79
2022/07/03 01:28:13;;;;;;;7.20;5.30;;;;;;;30.04;41.11;101317.44;143726;578;46006;-79
2022/07/03 01:30:49;;;;;;;7.65;5.03;;;;;;;30.01;41.34;101318.06;143725;684;48011;-80
2022/07/03 01:33:21;;;;;;;7.15;5.25;;;;;;;29.97;41.51;101323.44;143723;594;47002;-78
2022/07/03 01:36:09;;;;;;;8.38;5.18;;;;;;;30.01;41.73;101337.47;143724;580;47004;-78
2022/07/03 01:38:37;;;;;;;10.93;5.18;;;;;;;29.92;41.75;101334.59;143724;567;46006;-78
2022/07/03 01:41:11;;;;;;;9.07;5.03;;;;;;;29.85;41.66;101326.75;143723;600;47002;-78
2022/07/03 01:43:42;;;;;;;7.35;4.78;;;;;;;29.87;41.58;101340.25;143725;568;46010;-77
2022/07/03 01:46:11;;;;;;;5.55;4.70;;;;;;;29.87;41.84;101343.88;143716;588;47004;-78
2022/07/03 01:48:42;;;;;;;6.37;4.37;;;;;;;29.90;41.51;101334.94;143726;586;46006;-78
2022/07/03 01:51:13;;;;;;;7.70;4.62;;;;;;;29.85;41.99;101329.50;143725;642;47002;-79
2022/07/03 01:53:45;;;;;;;6.05;4.75;;;;;;;29.85;42.22;101339.75;143725;585;46011;-78
2022/07/03 01:56:12;;;;;;;7.10;4.95;;;;;;;29.81;42.02;101336.81;143724;580;47004;-78
2022/07/03 01:58:39;;;;;;;6.00;5.40;;;;;;;29.84;42.31;101354.72;143724;604;46007;-78
2022/07/03 02:01:46;;;;;;;6.18;4.80;;;;;;;29.79;42.62;101350.97;143725;574;47002;-78
2022/07/03 02:04:55;;;;;;;5.90;5.30;;;;;;;29.77;42.80;101339.41;143723;578;47008;-77
2022/07/03 02:07:39;;;;;;;6.40;4.80;;;;;;;29.75;42.67;101340.81;143726;627;46008;-77
2022/07/03 02:10:10;;;;;;;5.22;4.75;;;;;;;29.67;42.71;101344.34;143723;596;46006;-79
2022/07/03 02:12:49;;;;;;;12.77;5.80;;;;;;;29.71;42.33;101342.59;143721;650;47000;-78
2022/07/03 02:15:21;;;;;;;6.57;4.62;;;;;;;29.76;42.79;101356.31;143726;629;46011;-77
2022/07/03 02:17:48;;;;;;;7.57;4.70;;;;;;;29.74;43.37;101356.63;143724;640;47004;-78
2022/07/03 02:20:17;;;;;;;5.35;4.65;;;;;;;29.72;43.54;101358.87;143724;598;47006;-77
2022/07/03 02:22:52;;;;;;;5.50;4.65;;;;;;;29.73;43.55;101366.06;143726;629;47000;-77
2022/07/03 02:25:31;;;;;;;5.18;4.32;;;;;;;29.73;44.04;101365.25;143726;592;46929;-78
2022/07/03 02:28:24;;;;;;;7.68;5.03;;;;;;;29.74;43.44;101369.66;143726;638;47004;-79
2022/07/03 02:30:55;;;;;;;6.10;4.47;;;;;;;29.69;44.11;101370.59;143724;627;46006;-78
2022/07/03 02:33:27;;;;;;;7.45;5.15;;;;;;;29.59;43.80;101365.31;143729;593;46002;-78
2022/07/03 02:35:56;;;;;;;7.50;5.28;;;;;;;29.65;43.19;101375.94;143723;644;46008;-78
2022/07/03 02:38:26;;;;;;;6.37;4.90;;;;;;;29.72;43.59;101392.09;143716;574;47004;-79
2022/07/03 02:41:28;;;;;;;7.50;5.15;;;;;;;29.74;43.94;101397.34;143722;574;46011;-79
2022/07/03 02:44:43;;;;;;;5.05;4.55;;;;;;;29.75;43.34;101402.56;143726;620;47002;-79
2022/07/03 02:47:41;;;;;;;6.70;5.40;;;;;;;29.67;43.95;101395.00;143726;577;46008;-77
2022/07/03 02:50:12;;;;;;;9.20;6.10;;;;;;;29.69;44.02;101398.28;143724;569;47002;-78
2022/07/03 02:52:56;;;;;;;7.72;5.62;;;;;;;29.70;43.68;101399.09;143725;607;46006;-77
2022/07/03 02:56:07;;;;;;;8.77;5.87;;;;;;;29.76;43.35;101401.44;143725;603;47004;-77
2022/07/03 02:58:59;;;;;;;6.50;5.68;;;;;;;29.78;43.18;101409.41;143724;592;46010;-78
2022/07/03 03:01:46;;;;;;;6.20;5.12;;;;;;;29.73;43.89;101417.88;143724;573;47004;-80
2022/07/03 03:04:21;;;;;;;7.53;5.82;;;;;;;29.70;43.08;101412.94;143722;566;47006;-78
2022/07/03 03:06:54;;;;;;;6.22;5.72;;;;;;;29.67;43.13;101416.34;143718;594;47002;-77
2022/07/03 03:09:25;;;;;;;7.70;5.43;;;;;;;29.63;42.79;101416.94;143724;611;47010;-78
2022/07/03 03:11:56;;;;;;;7.87;4.80;;;;;;;29.62;43.10;101415.31;143724;635;47002;-78
2022/07/03 03:14:31;;;;;;;7.62;5.12;;;;;;;29.59;43.16;101423.44;143726;567;46007;-78
2022/07/03 03:17:01;;;;;;;8.95;5.40;;;;;;;29.52;43.58;101423.84;143725;610;47002;-77
2022/07/03 03:19:27;;;;;;;9.68;5.25;;;;;;;29.46;43.51;101423.16;143723;572;46010;-78
2022/07/03 03:22:29;;;;;;;8.00;5.03;;;;;;;29.45;43.93;101423.44;143724;657;47004;-78
2022/07/03 03:24:55;;;;;;;7.90;5.30;;;;;;;29.40;44.02;101429.91;143722;652;47006;-78
2022/07/03 03:27:23;;;;;;;8.15;4.72;;;;;;;29.42;44.38;101435.12;143726;601;47004;-79
2022/07/03 03:29:49;;;;;;;10.25;5.60;;;;;;;29.43;43.76;101428.47;143725;567;46011;-78
2022/07/03 03:32:17;;;;;;;7.80;5.78;;;;;;;29.46;43.64;101433.41;143718;590;47002;-79
2022/07/03 03:34:45;;;;;;;8.90;5.87;;;;;;;29.50;43.75;101445.50;143726;578;46017;-78
2022/07/03 03:37:12;;;;;;;9.07;5.40;;;;;;;29.50;43.76;101448.25;143725;582;47002;-79
2022/07/03 03:39:38;;;;;;;9.23;6.18;;;;;;;29.45;44.12;101451.97;143726;627;46008;-77
2022/07/03 03:42:05;;;;;;;10.77;5.62;;;;;;;29.42;44.29;101454.50;143722;640;47004;-77
2022/07/03 03:44:32;;;;;;;10.20;6.25;;;;;;;29.42;43.91;101444.28;143724;591;46012;-78
2022/07/03 03:46:58;;;;;;;9.52;6.55;;;;;;;29.44;43.28;101442.00;143725;573;47000;-78
2022/07/03 03:49:25;;;;;;;8.90;5.72;;;;;;;29.46;43.45;101450.84;143723;597;47010;-78
2022/07/03 03:51:52;;;;;;;8.55;5.62;;;;;;;29.43;44.17;101447.84;143727;605;47003;-78
2022/07/03 03:54:19;;;;;;;13.32;5.35;;;;;;;29.43;43.54;101453.38;143725;677;46006;-78
2022/07/03 03:56:45;;;;;;;11.80;5.68;;;;;;;29.40;44.05;101454.81;143720;566;47002;-79
2022/07/03 03:59:11;;;;;;;9.85;5.70;;;;;;;29.39;44.42;101458.72;143724;569;46930;-77
2022/07/03 04:01:38;;;;;;;6.97;4.90;;;;;;;29.34;44.66;101461.56;143725;583;47004;-78
2022/07/03 04:04:04;;;;;;;10.60;5.30;;;;;;;29.32;44.56;101455.50;143725;594;46008;-78
2022/07/03 04:06:31;;;;;;;9.13;5.80;;;;;;;29.34;44.45;101445.78;143725;609;47004;-79
2022/07/03 04:08:58;;;;;;;10.82;5.30;;;;;;;29.36;44.20;101455.75;143724;597;47012;-77
2022/07/03 04:11:25;;;;;;;11.93;5.15;;;;;;;29.36;44.77;101461.28;143725;613;47006;-78
2022/07/03 04:13:51;;;;;;;10.57;5.05;;;;;;;29.37;44.50;101463.75;143724;593;46009;-78
2022/07/03 04:16:17;;;;;;;9.82;5.28;;;;;;;29.40;44.69;101462.28;143724;609;47008;-78
2022/07/03 04:18:44;;;;;;;8.13;5.30;;;;;;;29.46;44.41;101467.44;143721;600;47012;-78
2022/07/03 04:21:10;;;;;;;6.97;4.35;;;;;;;29.51;43.71;101466.50;143717;604;47006;-79
2022/07/03 04:23:37;;;;;;;7.00;4.43;;;;;;;29.53;43.63;101467.00;143724;626;46008;-78
2022/07/03 04:26:07;;;;;;;8.82;5.05;;;;;;;29.55;44.18;101463.94;143726;599;47006;-78
2022/07/03 04:28:33;;;;;;;6.53;5.45;;;;;;;29.59;43.92;101460.22;143721;589;48930;-79
2022/07/03 04:31:00;;;;;;;8.55;4.70;;;;;;;29.59;43.62;101456.66;143725;568;47006;-77
2022/07/03 04:33:26;;;;;;;8.20;4.85;;;;;;;29.54;43.47;101452.03;143726;573;46024;-79
2022/07/03 04:35:53;;;;;;;6.10;4.75;;;;;;;29.62;44.35;101465.13;143728;591;47004;-77
2022/07/03 04:38:19;;;;;;;8.60;5.22;;;;;;;29.68;44.72;101473.34;143723;569;47012;-77
2022/07/03 04:40:46;;;;;;;6.93;4.70;;;;;;;29.71;44.95;101473.53;143726;592;47004;-77
2022/07/03 04:43:12;;;;;;;5.47;4.78;;;;;;;29.74;44.36;101470.16;143723;592;47006;-76
2022/07/03 04:45:39;;;;;;;15.15;5.07;;;;;;;29.76;44.97;101472.59;143720;568;47006;-78
2022/07/03 04:48:05;;;;;;;13.07;5.40;;;;;;;29.75;45.07;101479.25;143725;590;46030;-78
2022/07/03 04:50:32;;;;;;;7.68;4.45;;;;;;;29.78;43.75;101473.09;143725;602;46010;-77
2022/07/03 04:52:58;;;;;;;6.47;4.50;;;;;;;29.69;43.85;101474.97;143725;614;46928;-79
2022/07/03 04:55:24;;;;;;;6.10;4.32;;;;;;;29.65;43.53;101483.91;143724;615;47004;-80
2022/07/03 04:57:51;;;;;;;8.77;4.18;;;;;;;29.66;43.02;101479.16;143724;606;47011;-78
2022/07/03 05:00:17;;;;;;;4.85;3.97;;;;;;;29.78;42.92;101479.47;143724;593;47006;-79
2022/07/03 05:02:44;;;;;;;4.35;3.67;;;;;;;29.90;42.05;101478.09;143721;605;47002;-78
2022/07/03 05:05:10;;;;;;;5.25;3.50;;;;;;;29.93;40.98;101491.31;143727;568;47006;-79
2022/07/03 05:07:36;;;;;;;5.62;4.37;;;;;;;29.87;41.46;101485.09;143724;607;46013;-78
2022/07/03 05:10:03;;;;;;;6.70;3.58;;;;;;;29.94;41.49;101479.12;143719;623;46006;-79
2022/07/03 05:12:30;;;;;;;6.50;4.35;;;;;;;30.00;41.72;101489.00;143725;581;46009;-78
2022/07/03 05:14:57;;;;;;;5.97;4.78;;;;;;;30.05;41.67;101488.84;143728;679;47006;-78
2022/07/03 05:17:23;;;;;;;7.57;4.25;;;;;;;30.09;41.74;101495.41;143725;606;46012;-78
2022/07/03 05:20:23;;;;;;;8.60;5.28;;;;;;;30.15;41.59;101492.53;143723;573;47005;-79
2022/07/03 05:22:35;;;;;;;10.18;6.32;;;;;;;30.19;42.12;101490.75;143725;572;47002;-79
2022/07/03 05:25:02;;;;;;;13.45;10.55;;;;;;;30.23;41.93;101491.75;143723;654;49008;-79
2022/07/03 05:27:29;;;;;;;10.43;8.73;;;;;;;30.18;41.61;101489.94;143723;580;47012;-77
2022/07/03 05:29:55;;;;;;;8.35;7.55;;;;;;;30.17;41.12;101493.84;143725;612;47004;-78
2022/07/03 05:32:22;;;;;;;9.15;6.82;;;;;;;30.21;41.98;101492.09;143723;615;46008;-78
2022/07/03 05:34:48;;;;;;;9.25;5.40;;;;;;;30.19;42.77;101496.28;143719;611;47004;-79
2022/07/03 05:37:14;;;;;;;5.95;4.53;;;;;;;30.19;42.60;101488.81;143724;568;46029;-77
2022/07/03 05:39:41;;;;;;;6.28;4.30;;;;;;;30.23;42.67;101492.59;143723;663;47004;-79
2022/07/03 05:42:07;;;;;;;4.87;4.10;;;;;;;30.17;42.13;101490.25;143723;658;46009;-80
2022/07/03 05:44:34;;;;;;;6.50;4.28;;;;;;;29.98;42.60;101485.72;143727;569;47006;-80
2022/07/03 05:47:00;;;;;;;7.53;3.70;;;;;;;30.06;41.99;101492.44;143724;609;46012;-79
2022/07/03 05:49:26;;;;;;;6.65;4.05;;;;;;;30.17;41.78;101488.28;143724;605;47006;-80
2022/07/03 05:51:53;;;;;;;7.40;4.32;;;;;;;30.27;40.71;101490.00;143725;573;46008;-78
2022/07/03 05:54:20;;;;;;;9.88;4.20;;;;;;;30.32;40.68;101492.66;143727;577;47002;-77
2022/07/03 05:56:46;;;;;;;7.47;4.10;;;;;;;30.36;41.49;101485.31;143724;596;47012;-78
2022/07/03 05:59:13;;;;;;;13.70;4.57;;;;;;;30.32;40.99;101494.59;143718;638;47006;-79
2022/07/03 06:01:39;;;;;;;20.35;4.57;;;;;;;30.22;40.58;101495.66;143725;661;46008;-78
2022/07/03 06:04:05;;;;;;;5.53;3.95;;;;;;;30.06;41.04;101495.22;143730;653;46004;-78
2022/07/03 06:06:32;;;;;;;6.55;4.25;;;;;;;29.93;41.72;101489.38;143723;610;47010;-79
2022/07/03 06:08:58;;;;;;;4.53;3.35;;;;;;;29.87;41.83;101498.09;143724;588;47006;-80
2022/07/03 06:11:25;;;;;;;4.97;3.35;;;;;;;29.81;42.14;101480.78;143725;648;46023;-78
2022/07/03 06:13:51;;;;;;;8.65;4.15;;;;;;;29.84;42.65;101493.19;143726;651;47004;-78
2022/07/03 06:16:32;;;;;;;5.35;4.10;;;;;;;29.97;41.88;101494.31;143726;616;46026;-80
2022/07/03 06:19:11;;;;;;;5.85;3.65;;;;;;;30.07;41.44;101491.31;223037;57;46010;-80
2022/07/03 06:21:45;;;;;;;6.78;3.95;;;;;;;30.29;41.21;101493.28;143725;586;47004;-80
2022/07/03 06:24:13;;;;;;;9.82;4.28;;;;;;;30.33;39.68;101499.00;143721;610;46004;-80
2022/07/03 06:26:40;;;;;;;8.05;4.35;;;;;;;30.38;39.79;101499.69;143721;627;47012;-78
2022/07/03 06:29:06;;;;;;;5.78;3.40;;;;;;;30.25;39.92;101497.81;143720;642;47006;-77
2022/07/03 06:31:33;;;;;;;4.05;3.42;;;;;;;30.28;39.68;101496.34;143723;569;46008;-79
2022/07/03 06:33:59;;;;;;;5.30;3.83;;;;;;;30.19;39.11;101505.44;143726;591;47002;-79
2022/07/03 06:36:25;;;;;;;5.20;3.65;;;;;;;30.25;39.06;101504.19;143723;577;46010;-79
2022/07/03 06:38:52;;;;;;;5.72;3.62;;;;;;;30.36;38.55;101501.16;143722;576;47006;-80
2022/07/03 06:41:18;;;;;;;7.37;3.60;;;;;;;30.30;38.87;101516.25;143722;643;46008;-78
2022/07/03 06:43:45;;;;;;;6.03;3.42;;;;;;;30.17;39.20;101502.16;143722;572;47004;-78
2022/07/03 06:46:11;;;;;;;5.93;3.50;;;;;;;30.32;38.48;101500.12;143722;590;46018;-79
2022/07/03 06:48:38;;;;;;;4.50;3.30;;;;;;;30.45;38.56;101503.97;143716;584;47006;-79
2022/07/03 06:51:04;;;;;;;5.22;3.62;;;;;;;30.32;39.24;101505.69;143721;575;46009;-79
2022/07/03 06:53:30;;;;;;;3.65;2.90;;;;;;;30.38;38.64;101501.66;143726;577;46008;-79
2022/07/03 06:56:01;;;;;;;7.72;4.37;;;;;;;30.33;38.57;101496.22;143721;572;47012;-78
2022/07/03 06:58:27;;;;;;;5.93;3.85;;;;;;;30.34;38.62;101495.09;143721;613;47006;-78
2022/07/03 07:00:54;;;;;;;4.20;2.97;;;;;;;30.33;39.19;101487.91;143721;626;46924;-79
2022/07/03 07:03:23;;;;;;;6.30;3.58;;;;;;;30.52;38.51;101494.09;143720;614;48002;-77
2022/07/03 07:05:49;;;;;;;6.03;3.47;;;;;;;30.45;39.44;101496.47;143722;586;46012;-77
2022/07/03 07:08:16;;;;;;;7.87;4.25;;;;;;;30.35;40.00;101496.75;143723;580;47004;-79
2022/07/03 07:10:42;;;;;;;6.43;3.30;;;;;;;30.38;39.49;101480.28;143724;585;46008;-78
2022/07/03 07:13:09;;;;;;;9.07;3.78;;;;;;;30.48;39.39;101487.53;143718;604;47002;-78
2022/07/03 07:15:35;;;;;;;5.25;4.00;;;;;;;30.47;39.55;101482.31;143722;611;46012;-80
2022/07/03 07:18:01;;;;;;;5.47;3.60;;;;;;;30.38;39.54;101480.28;143707;645;51010;-80
2022/07/03 07:20:27;;;;;;;6.55;3.83;;;;;;;30.48;39.58;101479.22;143717;577;47914;-79
2022/07/03 07:22:54;;;;;;;10.68;3.60;;;;;;;30.64;39.80;101478.84;143722;579;47004;-78
2022/07/03 07:25:20;;;;;;;8.07;3.90;;;;;;;30.80;38.76;101468.97;143704;595;50006;-79
2022/07/03 07:27:47;;;;;;;6.80;3.90;;;;;;;30.79;38.18;101484.00;143723;579;47004;-80
2022/07/03 07:30:14;;;;;;;5.12;3.40;;;;;;;30.86;38.37;101478.00;143722;624;46910;-78
2022/07/03 07:32:59;;;;;;;6.97;3.34;;;;;;;30.94;37.54;101477.22;112461;57;10061049;-81
2022/07/03 07:35:26;;;;;;;6.20;3.62;;;;;;;30.93;37.53;101481.13;103886;559;10048618;-79
2022/07/03 07:37:52;;;;;;;6.05;3.85;;;;;;;30.83;37.45;101482.22;143719;588;46008;-77
2022/07/03 07:40:18;;;;;;;4.53;3.40;;;;;;;30.84;37.03;101474.72;143723;576;47004;-80
2022/07/03 07:42:45;;;;;;;6.95;3.75;;;;;;;30.83;36.99;101486.97;143721;639;49004;-83
2022/07/03 07:45:12;;;;;;;4.20;3.58;;;;;;;30.91;37.32;101483.41;124747;57;10003028;-78
2022/07/03 07:47:38;;;;;;;6.00;3.25;;;;;;;30.92;36.26;101475.91;143723;597;46008;-75
2022/07/03 07:50:23;;;;;;;6.37;3.65;;;;;;;30.91;36.30;101477.03;143716;586;47008;-79
2022/07/03 07:52:49;;;;;;;4.25;3.60;;;;;;;31.06;36.02;101482.16;126072;57;10003072;-80
2022/07/03 07:55:16;;;;;;;7.60;3.70;;;;;;;31.12;35.48;101474.50;143724;568;47004;-78
2022/07/03 07:57:42;;;;;;;4.05;3.03;;;;;;;31.33;34.22;101480.31;143725;593;47002;-80
2022/07/03 08:00:23;;;;;;;5.45;3.08;;;;;;;31.43;33.88;101477.25;126660;57;10046154;-79
2022/07/03 08:05:37;;;;;;;4.12;3.03;;;;;;;31.38;31.79;101477.41;143691;573;70337;-80
2022/07/03 08:08:25;;;;;;;4.07;3.17;;;;;;;31.48;32.26;101467.16;143726;631;46004;-78
2022/07/03 08:10:52;;;;;;;6.57;3.62;;;;;;;31.54;32.34;101471.37;143722;574;47006;-80
2022/07/03 08:13:21;;;;;;;6.20;3.33;;;;;;;31.59;31.08;101472.03;143723;579;46011;-79
2022/07/03 08:15:56;;;;;;;5.64;3.21;;;;;;;31.66;29.52;101470.75;146124;57;10003106;-78
2022/07/03 08:18:22;;;;;;;4.47;2.97;;;;;;;31.80;31.05;101471.44;157817;57;10001934;-80
2022/07/03 08:20:49;;;;;;;5.60;3.20;;;;;;;31.89;30.19;101474.22;143722;665;46006;-79
2022/07/03 08:23:16;;;;;;;4.05;3.05;;;;;;;31.88;28.97;101473.41;143723;588;47002;-77
2022/07/03 08:25:42;;;;;;;4.30;3.22;;;;;;;31.89;31.14;101477.00;143709;584;49002;-76
2022/07/03 08:28:09;;;;;;;4.97;3.35;;;;;;;31.86;29.74;101486.00;143717;580;47004;-78
2022/07/03 08:30:35;;;;;;;5.03;3.30;;;;;;;31.72;29.76;101478.63;143724;701;46006;-77
2022/07/03 08:33:02;;;;;;;4.00;3.03;;;;;;;31.86;31.13;101475.69;143721;567;49002;-75
2022/07/03 08:35:47;;;;;;;5.92;3.41;;;;;;;31.95;34.25;101477.69;125274;57;10047183;-79
2022/07/03 08:38:13;;;;;;;4.10;3.15;;;;;;;31.87;34.10;101490.41;123783;606;10047484;-78
2022/07/03 08:40:40;;;;;;;5.45;3.20;;;;;;;31.79;35.36;101483.69;143714;579;50006;-79
2022/07/03 08:43:07;;;;;;;4.57;3.37;;;;;;;31.58;35.26;101486.25;143715;578;47011;-76
2022/07/03 08:45:47;;;;;;;4.44;2.96;;;;;;;31.51;35.08;101485.91;123868;57;10003475;-77
2022/07/03 08:48:14;;;;;;;4.18;2.92;;;;;;;31.65;33.93;101486.59;84240;57;10049066;-74
2022/07/03 08:51:00;;;;;;;5.18;3.28;;;;;;;31.69;33.35;101472.88;124154;57;10002420;-78
2022/07/03 08:53:27;;;;;;;5.18;3.30;;;;;;;31.56;33.97;101466.31;143717;752;46920;-78
2022/07/03 08:55:53;;;;;;;5.07;3.25;;;;;;;31.65;33.28;101478.28;143725;669;47002;-75
2022/07/03 08:58:23;;;;;;;5.03;3.03;;;;;;;31.63;32.79;101472.22;143723;740;46027;-79
2022/07/03 09:00:50;;;;;;;6.28;3.10;;;;;;;31.77;32.99;101460.19;143722;584;47017;-76
2022/07/03 09:03:17;;;;;;;5.18;2.90;;;;;;;31.77;32.09;101477.69;143723;616;46006;-79
2022/07/03 09:05:44;;;;;;;4.65;3.10;;;;;;;31.84;31.79;101466.06;143722;572;47002;-78
2022/07/03 09:08:10;;;;;;;4.60;3.55;;;;;;;31.88;31.89;101461.47;143723;581;46008;-76
2022/07/03 09:10:36;;;;;;;4.30;3.03;;;;;;;31.84;30.92;101464.09;143721;592;47002;-77
2022/07/03 09:13:03;;;;;;;4.47;3.40;;;;;;;31.82;32.46;101463.59;143722;680;46007;-79
2022/07/03 09:15:30;;;;;;;4.35;3.10;;;;;;;31.94;31.92;101456.59;143725;572;47004;-76
2022/07/03 09:18:01;;;;;;;5.40;2.78;;;;;;;32.07;32.19;101452.81;143717;585;46010;-75
2022/07/03 09:20:33;;;;;;;4.82;2.67;;;;;;;32.21;31.40;101455.44;143722;572;47002;-77
2022/07/03 09:23:17;;;;;;;5.03;3.03;;;;;;;32.39;31.23;101453.47;143723;663;46006;-76
2022/07/03 09:25:56;;;;;;;5.80;3.30;;;;;;;32.51;31.85;101458.34;143722;569;47003;-76
2022/07/03 09:28:52;;;;;;;2.83;2.62;;;;;;;32.27;29.78;101445.00;143721;590;47011;-77
2022/07/03 09:31:27;;;;;;;6.12;2.80;;;;;;;32.21;30.24;101444.31;143719;576;47004;-75
2022/07/03 09:34:04;;;;;;;3.33;2.58;;;;;;;32.45;30.53;101446.59;143723;593;46007;-79
2022/07/03 09:36:51;;;;;;;3.83;2.62;;;;;;;32.35;29.59;101446.91;143725;701;47010;-78
2022/07/03 09:39:23;;;;;;;6.90;3.17;;;;;;;32.37;31.10;101446.59;143721;707;47010;-76
2022/07/03 09:42:12;;;;;;;2.65;2.45;;;;;;;32.55;30.63;101445.41;143723;709;46931;-75
2022/07/03 09:44:46;;;;;;;4.80;2.90;;;;;;;32.40;30.78;101451.47;143717;617;46006;-77
2022/07/03 09:47:20;;;;;;;6.25;3.03;;;;;;;32.33;30.06;101446.44;143725;605;47006;-78
2022/07/03 09:49:58;;;;;;;3.67;2.80;;;;;;;32.35;30.37;101433.03;143723;589;46032;-75
2022/07/03 09:52:30;;;;;;;5.10;2.60;;;;;;;32.34;29.83;101439.72;143720;567;47006;-75
2022/07/03 09:54:59;;;;;;;4.78;3.00;;;;;;;32.36;29.08;101440.22;143723;585;46008;-76
2022/07/03 09:57:28;;;;;;;3.28;2.90;;;;;;;32.37;28.62;101432.72;143725;624;47002;-77
2022/07/03 10:00:38;;;;;;;3.95;3.37;;;;;;;32.33;29.05;101436.16;143722;585;46012;-75
2022/07/03 10:03:09;;;;;;;5.25;2.70;;;;;;;32.54;28.95;101426.25;143723;584;47004;-75
2022/07/03 10:05:37;;;;;;;3.37;2.80;;;;;;;32.69;28.35;101419.34;143722;621;46922;-76
2022/07/03 10:08:12;;;;;;;3.97;3.22;;;;;;;32.72;28.12;101427.03;143722;574;48002;-78
2022/07/03 10:10:43;;;;;;;3.50;2.70;;;;;;;32.72;27.75;101429.81;143716;581;47012;-76
2022/07/03 10:13:10;;;;;;;5.60;2.67;;;;;;;32.79;27.79;101433.72;143723;580;47004;-76
2022/07/03 10:15:38;;;;;;;6.07;2.60;;;;;;;32.77;27.83;101435.16;143722;613;46008;-77
2022/07/03 10:18:07;;;;;;;5.57;3.08;;;;;;;32.73;27.99;101429.47;143723;650;47006;-77
2022/07/03 10:20:49;;;;;;;4.40;2.60;;;;;;;32.90;28.59;101430.56;143722;588;46013;-75
2022/07/03 10:23:22;;;;;;;4.68;2.45;;;;;;;33.11;26.85;101425.06;143722;580;47006;-76
2022/07/03 10:25:49;;;;;;;3.28;2.28;;;;;;;33.12;28.66;101423.91;143722;600;47008;-76
2022/07/03 10:28:18;;;;;;;3.50;2.87;;;;;;;33.32;29.86;101413.13;143722;624;47002;-76
2022/07/03 10:30:46;;;;;;;3.80;3.12;;;;;;;33.30;26.67;101418.22;143722;630;47004;-74
2022/07/03 10:33:12;;;;;;;3.65;2.97;;;;;;;33.37;27.34;101402.63;143724;641;47002;-77
2022/07/03 10:35:42;;;;;;;5.47;3.30;;;;;;;33.37;26.74;101415.75;143717;567;46006;-78
2022/07/03 10:38:46;;;;;;;4.35;2.70;;;;;;;33.31;26.77;101423.47;143723;575;47002;-76
2022/07/03 10:47:04;;;;;;;5.05;2.53;;;;;;;33.15;26.91;101408.50;143723;610;46006;-73
2022/07/03 10:49:30;;;;;;;5.57;2.80;;;;;;;33.29;27.91;101392.38;143726;644;46010;-74
2022/07/03 10:52:05;;;;;;;3.92;2.95;;;;;;;33.41;27.19;101392.47;143723;579;46010;-78
2022/07/03 10:54:36;;;;;;;4.53;3.12;;;;;;;33.29;28.11;101388.75;143720;572;47004;-78
2022/07/03 10:57:07;;;;;;;4.68;2.85;;;;;;;33.20;27.37;101400.78;143721;606;46007;-75
2022/07/03 10:59:56;;;;;;;4.03;2.87;;;;;;;33.23;27.49;101383.41;143725;573;47002;-76
2022/07/03 11:02:39;;;;;;;4.47;2.95;;;;;;;33.28;27.22;101395.47;143718;583;46026;-75
2022/07/03 11:05:20;;;;;;;3.67;2.72;;;;;;;33.45;27.71;101380.66;143724;592;47002;-76
2022/07/03 11:08:12;;;;;;;5.30;3.03;;;;;;;33.59;26.81;101377.59;143721;627;46006;-75
2022/07/03 11:10:40;;;;;;;4.35;2.78;;;;;;;33.72;27.21;101387.62;143723;564;47000;-78
2022/07/03 11:13:17;;;;;;;4.53;3.28;;;;;;;33.58;26.67;101365.63;143722;583;46010;-75
2022/07/03 11:15:54;;;;;;;5.43;3.33;;;;;;;33.66;25.96;101370.31;143721;591;47004;-75
2022/07/03 11:18:36;;;;;;;3.17;2.80;;;;;;;33.52;26.86;101370.59;143724;606;46006;-76
2022/07/03 11:21:26;;;;;;;6.40;3.08;;;;;;;33.57;26.37;101366.78;143723;590;47004;-77
2022/07/03 11:24:38;;;;;;;3.30;2.95;;;;;;;33.49;26.38;101371.28;143723;647;46010;-78
2022/07/03 11:27:23;;;;;;;5.03;3.00;;;;;;;33.38;26.27;101368.06;143722;621;47002;-76
2022/07/03 11:29:54;;;;;;;4.35;3.03;;;;;;;33.28;26.87;101360.13;143717;640;46006;-75
2022/07/03 11:32:48;;;;;;;3.25;2.37;;;;;;;33.32;26.71;101360.25;143723;583;47002;-75
2022/07/03 11:35:48;;;;;;;4.03;3.40;;;;;;;33.42;26.94;101357.09;143721;578;47011;-76
2022/07/03 11:38:22;;;;;;;3.15;2.50;;;;;;;33.35;26.17;101354.84;143724;584;46008;-76
2022/07/03 11:40:51;;;;;;;3.45;2.58;;;;;;;33.27;26.10;101358.47;143723;587;46006;-80
2022/07/03 11:43:18;;;;;;;4.68;2.72;;;;;;;33.38;26.26;101353.34;143724;590;47004;-75
2022/07/03 11:45:47;;;;;;;3.78;2.80;;;;;;;33.46;26.19;101355.25;143723;589;47008;-75
2022/07/03 11:48:16;;;;;;;5.75;2.67;;;;;;;33.47;26.84;101356.88;143722;606;47004;-76
2022/07/03 11:50:45;;;;;;;4.90;2.60;;;;;;;33.41;25.91;101363.81;143722;677;46006;-76
2022/07/03 11:53:23;;;;;;;3.78;2.78;;;;;;;33.30;25.68;101351.41;143723;574;47004;-75
2022/07/03 11:56:04;;;;;;;2.97;2.70;;;;;;;33.24;26.18;101348.84;143718;632;46010;-74